sensor_id;sensor_type;location;lat;lon;timestamp;pressure;altitude;pressure_sealevel;temperature;humidity
68075;BME280;54864;52.002;5.468;2022-11-14T00:00:35;101485.72;;;8.76;64.99
68075;BME280;54864;52.002;5.468;2022-11-14T00:01:37;101486.41;;;8.82;64.34
68075;BME280;54864;52.002;5.468;2022-11-14T00:02:39;101487.50;;;8.74;64.75
68075;BME280;54864;52.002;5.468;2022-11-14T00:03:42;101478.88;;;8.69;64.79
68075;BME280;54864;52.002;5.468;2022-11-14T00:04:44;101483.84;;;8.79;64.36
68075;BME280;54864;52.002;5.468;2022-11-14T00:05:47;101473.41;;;8.76;64.21
68075;BME280;54864;52.002;5.468;2022-11-14T00:06:48;101475.22;;;8.74;64.58
68075;BME280;54864;52.002;5.468;2022-11-14T00:07:50;101470.84;;;8.75;64.55
68075;BME280;54864;52.002;5.468;2022-11-14T00:08:51;101468.22;;;8.75;64.36
68075;BME280;54864;52.002;5.468;2022-11-14T00:09:52;101457.81;;;8.70;64.63
68075;BME280;54864;52.002;5.468;2022-11-14T00:10:53;101462.88;;;8.78;64.77
68075;BME280;54864;52.002;5.468;2022-11-14T00:11:55;101462.94;;;8.75;64.75
68075;BME280;54864;52.002;5.468;2022-11-14T00:12:56;101451.75;;;8.68;64.40
68075;BME280;54864;52.002;5.468;2022-11-14T00:13:58;101457.03;;;8.67;64.39
68075;BME280;54864;52.002;5.468;2022-11-14T00:14:59;101458.09;;;8.60;64.20
68075;BME280;54864;52.002;5.468;2022-11-14T00:16:01;101460.75;;;8.60;64.55
68075;BME280;54864;52.002;5.468;2022-11-14T00:17:02;101459.91;;;8.57;64.64
68075;BME280;54864;52.002;5.468;2022-11-14T00:18:04;101453.94;;;8.52;65.05
68075;BME280;54864;52.002;5.468;2022-11-14T00:19:08;101458.28;;;8.53;64.54
68075;BME280;54864;52.002;5.468;2022-11-14T00:20:11;101454.75;;;8.54;64.64
68075;BME280;54864;52.002;5.468;2022-11-14T00:21:12;101461.81;;;8.52;65.16
68075;BME280;54864;52.002;5.468;2022-11-14T00:22:14;101463.63;;;8.50;65.13
68075;BME280;54864;52.002;5.468;2022-11-14T00:23:15;101459.09;;;8.55;65.09
68075;BME280;54864;52.002;5.468;2022-11-14T00:24:17;101467.81;;;8.57;64.96
68075;BME280;54864;52.002;5.468;2022-11-14T00:25:18;101467.94;;;8.53;65.25
68075;BME280;54864;52.002;5.468;2022-11-14T00:26:20;101473.97;;;8.56;65.01
68075;BME280;54864;52.002;5.468;2022-11-14T00:27:21;101474.81;;;8.57;65.37
68075;BME280;54864;52.002;5.468;2022-11-14T00:28:23;101470.25;;;8.64;64.77
68075;BME280;54864;52.002;5.468;2022-11-14T00:29:25;101470.38;;;8.59;64.56
68075;BME280;54864;52.002;5.468;2022-11-14T00:30:27;101468.59;;;8.61;64.92
68075;BME280;54864;52.002;5.468;2022-11-14T00:31:29;101462.22;;;8.70;64.09
68075;BME280;54864;52.002;5.468;2022-11-14T00:32:30;101466.56;;;8.71;63.91
68075;BME280;54864;52.002;5.468;2022-11-14T00:33:32;101464.94;;;8.67;64.02
68075;BME280;54864;52.002;5.468;2022-11-14T00:34:34;101460.44;;;8.70;64.27
68075;BME280;54864;52.002;5.468;2022-11-14T00:35:36;101458.94;;;8.62;64.32
68075;BME280;54864;52.002;5.468;2022-11-14T00:36:38;101458.03;;;8.63;64.77
68075;BME280;54864;52.002;5.468;2022-11-14T00:37:40;101468.63;;;8.60;64.57
68075;BME280;54864;52.002;5.468;2022-11-14T00:38:41;101466.00;;;8.60;64.24
68075;BME280;54864;52.002;5.468;2022-11-14T00:39:43;101466.91;;;8.58;64.45
68075;BME280;54864;52.002;5.468;2022-11-14T00:40:44;101465.13;;;8.59;64.59
68075;BME280;54864;52.002;5.468;2022-11-14T00:41:46;101459.84;;;8.61;64.02
68075;BME280;54864;52.002;5.468;2022-11-14T00:42:47;101467.16;;;8.49;64.51
68075;BME280;54864;52.002;5.468;2022-11-14T00:43:49;101465.47;;;8.47;64.89
68075;BME280;54864;52.002;5.468;2022-11-14T00:44:49;101461.06;;;8.47;64.31
68075;BME280;54864;52.002;5.468;2022-11-14T00:45:51;101470.72;;;8.47;64.97
68075;BME280;54864;52.002;5.468;2022-11-14T00:46:52;101463.78;;;8.43;65.07
68075;BME280;54864;52.002;5.468;2022-11-14T00:47:54;101467.31;;;8.42;65.75
68075;BME280;54864;52.002;5.468;2022-11-14T00:48:55;101462.91;;;8.42;64.82
68075;BME280;54864;52.002;5.468;2022-11-14T00:49:58;101465.72;;;8.36;65.00
68075;BME280;54864;52.002;5.468;2022-11-14T00:50:59;101467.53;;;8.33;65.38
68075;BME280;54864;52.002;5.468;2022-11-14T00:52:01;101462.13;;;8.39;64.56
68075;BME280;54864;52.002;5.468;2022-11-14T00:53:02;101463.75;;;8.44;64.97
68075;BME280;54864;52.002;5.468;2022-11-14T00:54:04;101465.75;;;8.35;64.74
68075;BME280;54864;52.002;5.468;2022-11-14T00:55:06;101464.91;;;8.33;65.16
68075;BME280;54864;52.002;5.468;2022-11-14T00:56:08;101456.22;;;8.29;65.52
68075;BME280;54864;52.002;5.468;2022-11-14T00:57:10;101470.63;;;8.14;65.90
68075;BME280;54864;52.002;5.468;2022-11-14T00:58:12;101462.78;;;8.13;65.50
68075;BME280;54864;52.002;5.468;2022-11-14T00:59:12;101459.38;;;8.09;66.20
68075;BME280;54864;52.002;5.468;2022-11-14T01:00:14;101454.22;;;8.05;66.34
68075;BME280;54864;52.002;5.468;2022-11-14T01:01:15;101457.69;;;8.07;65.75
68075;BME280;54864;52.002;5.468;2022-11-14T01:02:17;101462.00;;;8.09;65.98
68075;BME280;54864;52.002;5.468;2022-11-14T01:03:18;101457.53;;;8.13;66.07
68075;BME280;54864;52.002;5.468;2022-11-14T01:04:20;101448.03;;;8.07;65.84
68075;BME280;54864;52.002;5.468;2022-11-14T01:05:22;101450.69;;;8.06;66.56
68075;BME280;54864;52.002;5.468;2022-11-14T01:06:25;101449.09;;;8.00;66.22
68075;BME280;54864;52.002;5.468;2022-11-14T01:07:26;101446.47;;;8.00;66.49
68075;BME280;54864;52.002;5.468;2022-11-14T01:08:28;101436.00;;;7.99;66.53
68075;BME280;54864;52.002;5.468;2022-11-14T01:09:29;101438.53;;;8.02;66.05
68075;BME280;54864;52.002;5.468;2022-11-14T01:10:31;101437.88;;;7.93;66.59
68075;BME280;54864;52.002;5.468;2022-11-14T01:11:32;101435.22;;;7.95;67.11
68075;BME280;54864;52.002;5.468;2022-11-14T01:12:34;101434.44;;;7.91;66.64
68075;BME280;54864;52.002;5.468;2022-11-14T01:13:34;101431.88;;;7.88;67.11
68075;BME280;54864;52.002;5.468;2022-11-14T01:14:38;101440.53;;;7.92;66.94
68075;BME280;54864;52.002;5.468;2022-11-14T01:15:40;101430.03;;;7.92;66.58
68075;BME280;54864;52.002;5.468;2022-11-14T01:16:43;101428.28;;;7.92;66.74
68075;BME280;54864;52.002;5.468;2022-11-14T01:17:44;101430.88;;;7.94;66.81
68075;BME280;54864;52.002;5.468;2022-11-14T01:18:46;101426.59;;;7.90;66.37
68075;BME280;54864;52.002;5.468;2022-11-14T01:19:47;101408.63;;;7.72;67.34
68075;BME280;54864;52.002;5.468;2022-11-14T01:20:50;101424.19;;;7.79;67.08
68075;BME280;54864;52.002;5.468;2022-11-14T01:21:51;101423.22;;;7.85;66.74
68075;BME280;54864;52.002;5.468;2022-11-14T01:22:53;101421.44;;;7.85;67.13
68075;BME280;54864;52.002;5.468;2022-11-14T01:23:54;101421.34;;;7.90;66.83
68075;BME280;54864;52.002;5.468;2022-11-14T01:24:56;101416.94;;;7.90;66.63
68075;BME280;54864;52.002;5.468;2022-11-14T01:26:01;101413.38;;;7.93;66.51
68075;BME280;54864;52.002;5.468;2022-11-14T01:27:03;101422.31;;;7.86;66.98
68075;BME280;54864;52.002;5.468;2022-11-14T01:28:05;101409.19;;;7.86;66.82
68075;BME280;54864;52.002;5.468;2022-11-14T01:29:11;101413.28;;;7.98;66.86
68075;BME280;54864;52.002;5.468;2022-11-14T01:30:13;101407.06;;;8.00;66.60
68075;BME280;54864;52.002;5.468;2022-11-14T01:31:16;101407.53;;;7.82;66.46
68075;BME280;54864;52.002;5.468;2022-11-14T01:32:19;101412.78;;;7.82;67.02
68075;BME280;54864;52.002;5.468;2022-11-14T01:33:21;101408.28;;;7.87;66.60
68075;BME280;54864;52.002;5.468;2022-11-14T01:34:22;101403.81;;;7.90;66.92
68075;BME280;54864;52.002;5.468;2022-11-14T01:35:24;101414.28;;;7.92;66.64
68075;BME280;54864;52.002;5.468;2022-11-14T01:36:26;101411.63;;;7.93;66.17
68075;BME280;54864;52.002;5.468;2022-11-14T01:37:28;101402.19;;;7.86;66.57
68075;BME280;54864;52.002;5.468;2022-11-14T01:38:29;101403.19;;;7.81;66.98
68075;BME280;54864;52.002;5.468;2022-11-14T01:39:31;101403.41;;;7.70;67.36
68075;BME280;54864;52.002;5.468;2022-11-14T01:40:32;101403.47;;;7.69;67.07
68075;BME280;54864;52.002;5.468;2022-11-14T01:41:35;101403.50;;;7.67;67.48
68075;BME280;54864;52.002;5.468;2022-11-14T01:42:36;101397.28;;;7.71;67.31
68075;BME280;54864;52.002;5.468;2022-11-14T01:43:38;101399.84;;;7.73;67.13
68075;BME280;54864;52.002;5.468;2022-11-14T01:44:47;101385.03;;;7.70;67.29
68075;BME280;54864;52.002;5.468;2022-11-14T01:45:53;101393.75;;;7.72;67.37
68075;BME280;54864;52.002;5.468;2022-11-14T01:46:57;101382.38;;;7.72;67.50
68075;BME280;54864;52.002;5.468;2022-11-14T01:47:59;101383.22;;;7.74;66.89
68075;BME280;54864;52.002;5.468;2022-11-14T01:49:02;101376.28;;;7.71;67.47
68075;BME280;54864;52.002;5.468;2022-11-14T01:50:09;101376.44;;;7.65;67.55
68075;BME280;54864;52.002;5.468;2022-11-14T01:51:23;101368.00;;;7.52;67.94
68075;BME280;54864;52.002;5.468;2022-11-14T01:52:32;101370.53;;;7.55;67.83
68075;BME280;54864;52.002;5.468;2022-11-14T01:53:35;101370.63;;;7.52;67.95
68075;BME280;54864;52.002;5.468;2022-11-14T01:54:45;101369.41;;;7.66;67.75
68075;BME280;54864;52.002;5.468;2022-11-14T01:55:51;101368.59;;;7.63;68.18
68075;BME280;54864;52.002;5.468;2022-11-14T01:56:58;101364.41;;;7.56;67.75
68075;BME280;54864;52.002;5.468;2022-11-14T01:58:03;101361.63;;;7.62;67.26
68075;BME280;54864;52.002;5.468;2022-11-14T01:59:07;101364.16;;;7.66;67.53
68075;BME280;54864;52.002;5.468;2022-11-14T02:00:11;101369.50;;;7.62;67.21
68075;BME280;54864;52.002;5.468;2022-11-14T02:01:13;101371.44;;;7.54;67.78
68075;BME280;54864;52.002;5.468;2022-11-14T02:02:16;101370.28;;;7.66;67.65
68075;BME280;54864;52.002;5.468;2022-11-14T02:03:20;101368.38;;;7.73;66.97
68075;BME280;54864;52.002;5.468;2022-11-14T02:04:24;101366.88;;;7.62;66.99
68075;BME280;54864;52.002;5.468;2022-11-14T02:05:30;101359.81;;;7.64;66.73
68075;BME280;54864;52.002;5.468;2022-11-14T02:06:35;101361.81;;;7.55;67.24
68075;BME280;54864;52.002;5.468;2022-11-14T02:07:39;101353.19;;;7.50;67.43
68075;BME280;54864;52.002;5.468;2022-11-14T02:08:41;101367.88;;;7.57;68.03
68075;BME280;54864;52.002;5.468;2022-11-14T02:09:47;101359.03;;;7.61;67.40
68075;BME280;54864;52.002;5.468;2022-11-14T02:10:48;101364.25;;;7.62;67.85
68075;BME280;54864;52.002;5.468;2022-11-14T02:11:52;101362.59;;;7.58;67.65
68075;BME280;54864;52.002;5.468;2022-11-14T02:12:56;101360.22;;;7.48;67.40
68075;BME280;54864;52.002;5.468;2022-11-14T02:13:58;101360.91;;;7.56;67.42
68075;BME280;54864;52.002;5.468;2022-11-14T02:14:59;101358.22;;;7.59;67.49
68075;BME280;54864;52.002;5.468;2022-11-14T02:16:03;101350.44;;;7.54;67.96
68075;BME280;54864;52.002;5.468;2022-11-14T02:17:04;101348.84;;;7.49;67.91
68075;BME280;54864;52.002;5.468;2022-11-14T02:18:06;101334.06;;;7.45;67.83
68075;BME280;54864;52.002;5.468;2022-11-14T02:19:07;101344.56;;;7.45;67.92
68075;BME280;54864;52.002;5.468;2022-11-14T02:20:17;101348.88;;;7.47;67.78
68075;BME280;54864;52.002;5.468;2022-11-14T02:21:20;101343.75;;;7.43;68.00
68075;BME280;54864;52.002;5.468;2022-11-14T02:22:21;101337.72;;;7.39;68.18
68075;BME280;54864;52.002;5.468;2022-11-14T02:23:26;101339.53;;;7.36;68.59
68075;BME280;54864;52.002;5.468;2022-11-14T02:24:29;101346.81;;;7.24;68.70
68075;BME280;54864;52.002;5.468;2022-11-14T02:25:29;101339.84;;;7.23;68.92
68075;BME280;54864;52.002;5.468;2022-11-14T02:26:31;101342.63;;;7.14;68.93
68075;BME280;54864;52.002;5.468;2022-11-14T02:27:33;101343.00;;;6.97;69.88
68075;BME280;54864;52.002;5.468;2022-11-14T02:28:36;101344.94;;;6.89;69.96
68075;BME280;54864;52.002;5.468;2022-11-14T02:29:37;101344.94;;;6.89;70.02
68075;BME280;54864;52.002;5.468;2022-11-14T02:30:39;101339.53;;;6.97;70.15
68075;BME280;54864;52.002;5.468;2022-11-14T02:31:40;101339.53;;;6.97;69.89
68075;BME280;54864;52.002;5.468;2022-11-14T02:32:42;101332.38;;;7.04;69.94
68075;BME280;54864;52.002;5.468;2022-11-14T02:33:43;101337.38;;;7.14;69.28
68075;BME280;54864;52.002;5.468;2022-11-14T02:34:45;101341.69;;;7.18;69.07
68075;BME280;54864;52.002;5.468;2022-11-14T02:35:47;101335.78;;;7.09;69.22
68075;BME280;54864;52.002;5.468;2022-11-14T02:36:49;101340.31;;;7.00;69.62
68075;BME280;54864;52.002;5.468;2022-11-14T02:37:51;101335.78;;;7.09;69.00
68075;BME280;54864;52.002;5.468;2022-11-14T02:38:53;101332.16;;;7.14;69.52
68075;BME280;54864;52.002;5.468;2022-11-14T02:39:54;101333.19;;;7.07;68.73
68075;BME280;54864;52.002;5.468;2022-11-14T02:40:58;101337.47;;;7.11;68.91
68075;BME280;54864;52.002;5.468;2022-11-14T02:41:59;101333.72;;;7.23;68.84
68075;BME280;54864;52.002;5.468;2022-11-14T02:43:01;101335.59;;;7.18;68.66
68075;BME280;54864;52.002;5.468;2022-11-14T02:44:02;101334.66;;;7.20;68.43
68075;BME280;54864;52.002;5.468;2022-11-14T02:45:05;101331.81;;;7.29;68.09
68075;BME280;54864;52.002;5.468;2022-11-14T02:46:07;101337.97;;;7.28;68.51
68075;BME280;54864;52.002;5.468;2022-11-14T02:47:09;101330.31;;;7.19;68.69
68075;BME280;54864;52.002;5.468;2022-11-14T02:48:09;101331.25;;;7.17;68.55
68075;BME280;54864;52.002;5.468;2022-11-14T02:49:11;101332.16;;;7.14;69.15
68075;BME280;54864;52.002;5.468;2022-11-14T02:50:12;101332.19;;;7.13;68.84
68075;BME280;54864;52.002;5.468;2022-11-14T02:51:16;101332.31;;;7.07;69.45
68075;BME280;54864;52.002;5.468;2022-11-14T02:52:17;101334.03;;;7.08;68.94
68075;BME280;54864;52.002;5.468;2022-11-14T02:53:19;101327.28;;;6.97;69.31
68075;BME280;54864;52.002;5.468;2022-11-14T02:54:19;101331.00;;;6.87;69.51
68075;BME280;54864;52.002;5.468;2022-11-14T02:55:21;101324.69;;;6.96;69.37
68075;BME280;54864;52.002;5.468;2022-11-14T02:56:22;101323.81;;;6.97;69.72
68075;BME280;54864;52.002;5.468;2022-11-14T02:57:24;101322.94;;;6.96;69.39
68075;BME280;54864;52.002;5.468;2022-11-14T02:58:25;101318.47;;;7.02;69.01
68075;BME280;54864;52.002;5.468;2022-11-14T02:59:27;101318.47;;;7.02;68.95
68075;BME280;54864;52.002;5.468;2022-11-14T03:00:27;101310.94;;;6.86;69.21
68075;BME280;54864;52.002;5.468;2022-11-14T03:01:30;101321.38;;;6.88;69.46
68075;BME280;54864;52.002;5.468;2022-11-14T03:02:31;101319.56;;;6.91;69.69
68075;BME280;54864;52.002;5.468;2022-11-14T03:03:33;101320.53;;;6.87;69.51
68075;BME280;54864;52.002;5.468;2022-11-14T03:04:34;101325.66;;;6.92;69.68
68075;BME280;54864;52.002;5.468;2022-11-14T03:05:36;101318.03;;;6.81;69.92
68075;BME280;54864;52.002;5.468;2022-11-14T03:06:38;101316.34;;;6.79;70.41
68075;BME280;54864;52.002;5.468;2022-11-14T03:07:40;101322.50;;;6.78;70.03
68075;BME280;54864;52.002;5.468;2022-11-14T03:08:41;101323.31;;;6.80;70.42
68075;BME280;54864;52.002;5.468;2022-11-14T03:09:42;101326.97;;;6.73;70.41
68075;BME280;54864;52.002;5.468;2022-11-14T03:10:43;101326.16;;;6.69;71.03
68075;BME280;54864;52.002;5.468;2022-11-14T03:11:46;101330.44;;;6.73;70.58
68075;BME280;54864;52.002;5.468;2022-11-14T03:12:47;101328.69;;;6.74;70.92
68075;BME280;54864;52.002;5.468;2022-11-14T03:13:53;101321.78;;;6.70;70.45
68075;BME280;54864;52.002;5.468;2022-11-14T03:14:54;101323.44;;;6.74;70.24
68075;BME280;54864;52.002;5.468;2022-11-14T03:15:56;101326.16;;;6.69;70.28
68075;BME280;54864;52.002;5.468;2022-11-14T03:16:56;101322.59;;;6.73;70.47
68075;BME280;54864;52.002;5.468;2022-11-14T03:17:58;101318.22;;;6.74;70.19
68075;BME280;54864;52.002;5.468;2022-11-14T03:18:59;101316.38;;;6.77;70.37
68075;BME280;54864;52.002;5.468;2022-11-14T03:20:02;101312.03;;;6.76;70.43
68075;BME280;54864;52.002;5.468;2022-11-14T03:21:04;101314.69;;;6.75;70.39
68075;BME280;54864;52.002;5.468;2022-11-14T03:22:08;101307.94;;;6.64;70.38
68075;BME280;54864;52.002;5.468;2022-11-14T03:23:09;101300.88;;;6.68;70.53
68075;BME280;54864;52.002;5.468;2022-11-14T03:24:11;101304.38;;;6.67;70.58
68075;BME280;54864;52.002;5.468;2022-11-14T03:25:12;101306.81;;;6.76;70.35
68075;BME280;54864;52.002;5.468;2022-11-14T03:26:14;101298.91;;;6.78;69.97
68075;BME280;54864;52.002;5.468;2022-11-14T03:27:15;101301.41;;;6.82;69.95
68075;BME280;54864;52.002;5.468;2022-11-14T03:28:17;101297.06;;;6.81;69.83
68075;BME280;54864;52.002;5.468;2022-11-14T03:29:18;101301.59;;;6.75;69.55
68075;BME280;54864;52.002;5.468;2022-11-14T03:30:20;101291.97;;;6.75;69.81
68075;BME280;54864;52.002;5.468;2022-11-14T03:31:21;101299.91;;;6.72;70.15
68075;BME280;54864;52.002;5.468;2022-11-14T03:32:23;101289.50;;;6.69;70.14
68075;BME280;54864;52.002;5.468;2022-11-14T03:33:24;101290.41;;;6.66;70.62
68075;BME280;54864;52.002;5.468;2022-11-14T03:34:26;101281.78;;;6.61;70.45
68075;BME280;54864;52.002;5.468;2022-11-14T03:35:27;101285.06;;;6.71;70.28
68075;BME280;54864;52.002;5.468;2022-11-14T03:36:28;101281.53;;;6.74;69.91
68075;BME280;54864;52.002;5.468;2022-11-14T03:37:31;101286.00;;;6.68;70.04
68075;BME280;54864;52.002;5.468;2022-11-14T03:38:33;101276.28;;;6.74;69.99
68075;BME280;54864;52.002;5.468;2022-11-14T03:39:34;101275.44;;;6.73;69.66
68075;BME280;54864;52.002;5.468;2022-11-14T03:40:38;101268.34;;;6.77;69.90
68075;BME280;54864;52.002;5.468;2022-11-14T03:41:39;101279.91;;;6.68;69.84
68075;BME280;54864;52.002;5.468;2022-11-14T03:42:41;101279.94;;;6.66;70.47
68075;BME280;54864;52.002;5.468;2022-11-14T03:43:42;101275.88;;;6.53;70.36
68075;BME280;54864;52.002;5.468;2022-11-14T03:44:44;101272.34;;;6.54;70.66
68075;BME280;54864;52.002;5.468;2022-11-14T03:45:45;101279.34;;;6.54;70.62
68075;BME280;54864;52.002;5.468;2022-11-14T03:46:47;101276.69;;;6.55;70.66
68075;BME280;54864;52.002;5.468;2022-11-14T03:47:48;101273.34;;;6.47;70.51
68075;BME280;54864;52.002;5.468;2022-11-14T03:48:50;101270.69;;;6.49;70.65
68075;BME280;54864;52.002;5.468;2022-11-14T03:49:51;101271.47;;;6.54;70.63
68075;BME280;54864;52.002;5.468;2022-11-14T03:50:52;101269.63;;;6.59;70.07
68075;BME280;54864;52.002;5.468;2022-11-14T03:51:53;101271.41;;;6.57;70.43
68075;BME280;54864;52.002;5.468;2022-11-14T03:52:57;101271.31;;;6.61;70.36
68075;BME280;54864;52.002;5.468;2022-11-14T03:53:58;101262.47;;;6.67;70.33
68075;BME280;54864;52.002;5.468;2022-11-14T03:54:59;101265.09;;;6.67;69.75
68075;BME280;54864;52.002;5.468;2022-11-14T03:56:00;101262.44;;;6.68;69.30
68075;BME280;54864;52.002;5.468;2022-11-14T03:57:02;101257.22;;;6.67;69.38
68075;BME280;54864;52.002;5.468;2022-11-14T03:58:03;101257.91;;;6.75;69.59
68075;BME280;54864;52.002;5.468;2022-11-14T03:59:05;101264.09;;;6.73;69.36
68075;BME280;54864;52.002;5.468;2022-11-14T04:00:08;101266.63;;;6.76;69.61
68075;BME280;54864;52.002;5.468;2022-11-14T04:01:15;101257.91;;;6.75;69.50
68075;BME280;54864;52.002;5.468;2022-11-14T04:02:16;101257.88;;;6.77;69.25
68075;BME280;54864;52.002;5.468;2022-11-14T04:03:21;101259.53;;;6.81;69.00
68075;BME280;54864;52.002;5.468;2022-11-14T04:04:22;101260.31;;;6.84;68.76
68075;BME280;54864;52.002;5.468;2022-11-14T04:05:24;101265.19;;;6.62;69.07
68075;BME280;54864;52.002;5.468;2022-11-14T04:06:25;101260.69;;;6.67;69.07
68075;BME280;54864;52.002;5.468;2022-11-14T04:07:27;101257.13;;;6.72;68.94
68075;BME280;54864;52.002;5.468;2022-11-14T04:08:39;101255.97;;;6.83;68.57
68075;BME280;54864;52.002;5.468;2022-11-14T04:09:51;101262.94;;;6.84;68.34
68075;BME280;54864;52.002;5.468;2022-11-14T04:10:57;101244.84;;;6.74;68.31
68075;BME280;54864;52.002;5.468;2022-11-14T04:11:59;101266.25;;;6.92;67.91
68075;BME280;54864;52.002;5.468;2022-11-14T04:13:03;101263.81;;;6.85;67.94
68075;BME280;54864;52.002;5.468;2022-11-14T04:14:05;101258.56;;;6.85;67.69
68075;BME280;54864;52.002;5.468;2022-11-14T04:15:07;101257.59;;;6.89;67.65
68075;BME280;54864;52.002;5.468;2022-11-14T04:16:09;101262.06;;;6.84;66.98
68075;BME280;54864;52.002;5.468;2022-11-14T04:17:10;101261.22;;;6.83;67.12
68075;BME280;54864;52.002;5.468;2022-11-14T04:18:23;101262.97;;;6.83;67.51
68075;BME280;54864;52.002;5.468;2022-11-14T04:19:30;101263.97;;;6.77;67.61
68075;BME280;54864;52.002;5.468;2022-11-14T04:20:34;101253.59;;;6.73;67.61
68075;BME280;54864;52.002;5.468;2022-11-14T04:21:35;101248.25;;;6.77;67.39
68075;BME280;54864;52.002;5.468;2022-11-14T04:22:37;101249.47;;;6.62;67.96
68075;BME280;54864;52.002;5.468;2022-11-14T04:23:42;101255.63;;;6.60;68.14
68075;BME280;54864;52.002;5.468;2022-11-14T04:24:44;101250.16;;;6.71;67.34
68075;BME280;54864;52.002;5.468;2022-11-14T04:25:45;101262.94;;;6.44;68.32
68075;BME280;54864;52.002;5.468;2022-11-14T04:26:47;101259.34;;;6.48;68.35
68075;BME280;54864;52.002;5.468;2022-11-14T04:27:48;101262.69;;;6.56;67.83
68075;BME280;54864;52.002;5.468;2022-11-14T04:28:50;101258.19;;;6.63;67.57
68075;BME280;54864;52.002;5.468;2022-11-14T04:29:51;101254.81;;;6.58;67.84
68075;BME280;54864;52.002;5.468;2022-11-14T04:30:52;101257.34;;;6.61;67.27
68075;BME280;54864;52.002;5.468;2022-11-14T04:31:53;101257.34;;;6.61;67.06
68075;BME280;54864;52.002;5.468;2022-11-14T04:32:55;101262.72;;;6.55;67.44
68075;BME280;54864;52.002;5.468;2022-11-14T04:33:57;101253.25;;;6.48;67.41
68075;BME280;54864;52.002;5.468;2022-11-14T04:34:59;101256.75;;;6.47;67.55
68075;BME280;54864;52.002;5.468;2022-11-14T04:36:00;101258.63;;;6.42;67.59
68075;BME280;54864;52.002;5.468;2022-11-14T04:37:01;101262.22;;;6.36;67.49
68075;BME280;54864;52.002;5.468;2022-11-14T04:38:03;101253.59;;;6.32;68.28
68075;BME280;54864;52.002;5.468;2022-11-14T04:39:06;101254.47;;;6.31;68.33
68075;BME280;54864;52.002;5.468;2022-11-14T04:40:08;101251.78;;;6.34;68.30
68075;BME280;54864;52.002;5.468;2022-11-14T04:41:10;101251.63;;;6.42;68.08
68075;BME280;54864;52.002;5.468;2022-11-14T04:42:11;101252.63;;;6.36;68.04
68075;BME280;54864;52.002;5.468;2022-11-14T04:43:13;101248.38;;;6.31;68.00
68075;BME280;54864;52.002;5.468;2022-11-14T04:44:14;101245.78;;;6.29;67.99
68075;BME280;54864;52.002;5.468;2022-11-14T04:45:16;101242.97;;;6.39;67.96
68075;BME280;54864;52.002;5.468;2022-11-14T04:46:16;101234.63;;;6.21;67.95
68075;BME280;54864;52.002;5.468;2022-11-14T04:47:18;101237.19;;;6.23;68.02
68075;BME280;54864;52.002;5.468;2022-11-14T04:48:19;101234.41;;;6.30;68.21
68075;BME280;54864;52.002;5.468;2022-11-14T04:49:21;101229.44;;;6.18;68.31
68075;BME280;54864;52.002;5.468;2022-11-14T04:50:22;101226.03;;;6.15;68.54
68075;BME280;54864;52.002;5.468;2022-11-14T04:51:24;101220.75;;;6.16;68.45
68075;BME280;54864;52.002;5.468;2022-11-14T04:52:25;101220.88;;;6.10;68.69
68075;BME280;54864;52.002;5.468;2022-11-14T04:53:26;101226.78;;;6.20;68.43
68075;BME280;54864;52.002;5.468;2022-11-14T04:54:29;101223.38;;;6.16;68.38
68075;BME280;54864;52.002;5.468;2022-11-14T04:55:30;101215.63;;;6.12;68.35
68075;BME280;54864;52.002;5.468;2022-11-14T04:56:31;101219.28;;;6.03;68.57
68075;BME280;54864;52.002;5.468;2022-11-14T04:57:33;101217.44;;;6.08;68.73
68075;BME280;54864;52.002;5.468;2022-11-14T04:58:34;101213.94;;;6.09;68.56
68075;BME280;54864;52.002;5.468;2022-11-14T04:59:36;101212.13;;;6.11;68.48
68075;BME280;54864;52.002;5.468;2022-11-14T05:00:37;101224.63;;;5.98;69.22
68075;BME280;54864;52.002;5.468;2022-11-14T05:01:39;101214.88;;;6.05;68.70
68075;BME280;54864;52.002;5.468;2022-11-14T05:02:40;101216.50;;;6.11;68.48
68075;BME280;54864;52.002;5.468;2022-11-14T05:03:41;101214.97;;;6.00;68.53
68075;BME280;54864;52.002;5.468;2022-11-14T05:04:42;101218.75;;;5.83;68.99
68075;BME280;54864;52.002;5.468;2022-11-14T05:05:46;101222.16;;;5.91;69.40
68075;BME280;54864;52.002;5.468;2022-11-14T05:06:47;101221.34;;;5.86;69.52
68075;BME280;54864;52.002;5.468;2022-11-14T05:07:49;101223.03;;;5.88;69.35
68075;BME280;54864;52.002;5.468;2022-11-14T05:08:51;101224.81;;;5.86;69.57
68075;BME280;54864;52.002;5.468;2022-11-14T05:09:53;101213.59;;;5.80;69.27
68075;BME280;54864;52.002;5.468;2022-11-14T05:10:55;101220.59;;;5.78;69.70
68075;BME280;54864;52.002;5.468;2022-11-14T05:11:55;101217.88;;;5.84;69.53
68075;BME280;54864;52.002;5.468;2022-11-14T05:12:57;101216.13;;;5.86;69.51
68075;BME280;54864;52.002;5.468;2022-11-14T05:13:58;101213.44;;;5.90;69.28
68075;BME280;54864;52.002;5.468;2022-11-14T05:15:00;101209.09;;;5.88;69.35
68075;BME280;54864;52.002;5.468;2022-11-14T05:16:01;101203.91;;;5.86;69.26
68075;BME280;54864;52.002;5.468;2022-11-14T05:17:03;101205.75;;;5.80;69.67
68075;BME280;54864;52.002;5.468;2022-11-14T05:18:04;101203.94;;;5.83;69.83
68075;BME280;54864;52.002;5.468;2022-11-14T05:19:06;101205.81;;;5.77;70.21
68075;BME280;54864;52.002;5.468;2022-11-14T05:20:07;101202.38;;;5.73;70.34
68075;BME280;54864;52.002;5.468;2022-11-14T05:21:11;101205.03;;;5.71;70.12
68075;BME280;54864;52.002;5.468;2022-11-14T05:22:13;101199.38;;;5.48;70.54
68075;BME280;54864;52.002;5.468;2022-11-14T05:23:18;101201.69;;;5.63;70.59
68075;BME280;54864;52.002;5.468;2022-11-14T05:24:21;101203.44;;;5.63;70.37
68075;BME280;54864;52.002;5.468;2022-11-14T05:25:24;101208.53;;;5.70;70.61
68075;BME280;54864;52.002;5.468;2022-11-14T05:26:25;101202.34;;;5.74;70.28
68075;BME280;54864;52.002;5.468;2022-11-14T05:27:27;101198.19;;;5.64;70.13
68075;BME280;54864;52.002;5.468;2022-11-14T05:28:29;101201.53;;;5.72;70.34
68075;BME280;54864;52.002;5.468;2022-11-14T05:29:31;101191.06;;;5.72;69.99